CO77 weather

Horth Strip
Hudson, Colorado, United States

Public forecast

Using degrees Fahrenheit for public forecast. Weather courtesy of forecast.io.

METAR (pilot weather report)

Closest report is Denver International Airport, 7.9 nm (14.6 km) SSW. Retrieved 2019/04/19 17:53 UTC (34 minutes ago):

KDEN 191753Z 05007KT 10SM FEW220 19/M02 A3015 RMK AO2 SLP163 T01891022 10189 20022 58008

TAF (pilot weather forecast)

Closest forecast is Denver International Airport, 7.9 nm (14.6 km) SSW. Retrieved 2019/04/19 12:28 UTC (6 hours ago):

TAF KDEN 191126Z 1912/2018 19009KT P6SM FEW120 FM191400 24005KT P6SM FEW120 FM191800 02007KT P6SM FEW100 FM192300 08006KT P6SM FEW100 FM200200 16006KT P6SM SCT200 FM200600 19007KT P6SM SCT200